createdAt,value
2022-12-14T00:01:34.990Z,10.60
2022-12-14T00:03:39.948Z,11.27
2022-12-14T00:05:45.319Z,11.32
2022-12-14T00:07:50.428Z,10.18
2022-12-14T00:09:55.174Z,11.52
2022-12-14T00:11:59.936Z,11.13
2022-12-14T00:14:07.438Z,12.00
2022-12-14T00:16:14.462Z,10.73
2022-12-14T00:18:22.723Z,11.25
2022-12-14T00:20:28.032Z,10.20
2022-12-14T00:22:32.797Z,11.27
2022-12-14T00:24:37.593Z,9.88
2022-12-14T00:26:42.370Z,11.45
2022-12-14T00:28:48.762Z,11.30
2022-12-14T00:30:59.688Z,11.00
2022-12-14T00:33:04.490Z,11.43
2022-12-14T00:35:13.545Z,10.43
2022-12-14T00:37:18.389Z,10.80
2022-12-14T00:39:23.158Z,11.18
2022-12-14T00:41:28.025Z,11.27
2022-12-14T00:43:33.468Z,11.60
2022-12-14T00:45:38.338Z,10.98
2022-12-14T00:47:43.877Z,10.90
2022-12-14T00:49:48.698Z,12.35
2022-12-14T00:51:56.527Z,11.68
2022-12-14T00:54:01.280Z,11.05
2022-12-14T00:56:09.285Z,10.55
2022-12-14T00:58:16.460Z,10.38
2022-12-14T01:00:21.733Z,11.13
2022-12-14T01:02:26.599Z,11.20
2022-12-14T01:04:31.736Z,11.07
2022-12-14T01:08:43.640Z,11.65
2022-12-14T01:10:48.436Z,11.23
2022-12-14T01:12:53.237Z,11.35
2022-12-14T01:14:58.499Z,12.10
2022-12-14T01:17:03.396Z,10.95
2022-12-14T01:19:08.803Z,11.43
2022-12-14T01:21:16.247Z,11.15
2022-12-14T01:23:20.998Z,10.35
2022-12-14T01:25:28.516Z,12.15
2022-12-14T01:27:33.419Z,11.30
2022-12-14T01:29:38.252Z,10.98
2022-12-14T01:31:43.088Z,11.00
2022-12-14T01:33:48.010Z,12.00
2022-12-14T01:35:52.876Z,10.38
2022-12-14T01:37:57.588Z,10.80
2022-12-14T01:40:02.360Z,10.32
2022-12-14T01:42:14.405Z,10.88
2022-12-14T01:44:54.076Z,10.40
2022-12-14T01:47:07.378Z,11.13
2022-12-14T01:49:23.731Z,11.57
2022-12-14T01:51:29.801Z,10.82
2022-12-14T01:53:34.835Z,11.52
2022-12-14T01:55:42.322Z,12.02
2022-12-14T01:58:01.696Z,11.38
2022-12-14T02:00:08.963Z,11.15
2022-12-14T02:02:14.839Z,11.70
2022-12-14T02:04:21.403Z,11.85
2022-12-14T02:06:32.849Z,11.00
2022-12-14T02:08:38.797Z,12.07
2022-12-14T02:10:44.300Z,12.18
2022-12-14T02:12:52.673Z,12.35
2022-12-14T02:15:01.418Z,12.05
2022-12-14T02:17:07.382Z,12.45
2022-12-14T02:19:12.170Z,12.30
2022-12-14T02:21:27.849Z,11.93
2022-12-14T02:26:09.132Z,11.98
2022-12-14T02:28:40.680Z,11.75
2022-12-14T02:30:55.042Z,12.02
2022-12-14T02:33:19.078Z,12.88
2022-12-14T02:35:36.167Z,11.27
2022-12-14T02:37:49.340Z,11.13
2022-12-14T02:40:03.897Z,11.98
2022-12-14T02:42:13.646Z,11.60
2022-12-14T02:44:29.411Z,11.68
2022-12-14T02:46:50.037Z,10.70
2022-12-14T02:49:04.925Z,10.95
2022-12-14T02:51:19.562Z,11.05
2022-12-14T02:53:31.713Z,11.98
2022-12-14T02:55:40.557Z,11.38
2022-12-14T02:57:53.502Z,11.18
2022-12-14T03:00:00.907Z,11.50
2022-12-14T03:02:09.946Z,11.40
2022-12-14T03:04:14.943Z,11.77
2022-12-14T03:06:26.251Z,12.48
2022-12-14T03:08:35.367Z,12.23
2022-12-14T03:10:44.916Z,12.77
2022-12-14T03:12:57.176Z,12.20
2022-12-14T03:15:04.811Z,12.13
2022-12-14T03:17:19.603Z,12.38
2022-12-14T03:19:28.568Z,12.85
2022-12-14T03:21:37.053Z,12.57
2022-12-14T03:23:48.831Z,12.32
2022-12-14T03:25:59.605Z,12.55
2022-12-14T03:28:10.560Z,12.02
2022-12-14T03:30:43.785Z,11.73
2022-12-14T03:32:51.301Z,10.88
2022-12-14T03:34:59.234Z,11.32
2022-12-14T03:37:11.238Z,11.10
2022-12-14T03:39:23.732Z,12.50
2022-12-14T03:41:34.338Z,12.02
2022-12-14T03:43:49.776Z,12.57
2022-12-14T03:46:04.230Z,11.20
2022-12-14T03:48:22.512Z,11.52
2022-12-14T03:50:30.115Z,12.52
2022-12-14T03:52:40.442Z,10.85
2022-12-14T03:54:55.078Z,10.63
2022-12-14T03:57:06.426Z,10.00
2022-12-14T03:59:17.984Z,9.75
2022-12-14T04:01:30.045Z,10.10
2022-12-14T04:03:48.556Z,9.88
2022-12-14T04:05:59.925Z,10.55
2022-12-14T04:08:11.258Z,9.93
2022-12-14T04:10:34.528Z,10.15
2022-12-14T04:12:55.230Z,10.63
2022-12-14T04:15:22.497Z,11.15
2022-12-14T04:17:45.395Z,10.75
2022-12-14T04:19:58.449Z,11.68
2022-12-14T04:22:07.352Z,12.15
2022-12-14T04:24:29.343Z,11.95
2022-12-14T04:26:37.727Z,12.02
2022-12-14T04:29:01.739Z,12.02
2022-12-14T04:31:12.455Z,12.02
2022-12-14T04:33:31.124Z,11.82
2022-12-14T04:35:43.162Z,10.73
2022-12-14T04:37:52.304Z,11.02
2022-12-14T04:40:01.172Z,11.70
2022-12-14T04:42:09.128Z,10.70
2022-12-14T04:44:19.787Z,11.02
2022-12-14T04:46:29.383Z,13.70
2022-12-14T04:48:39.810Z,12.30
2022-12-14T04:50:51.802Z,12.32
2022-12-14T04:53:01.347Z,12.10
2022-12-14T04:55:11.363Z,12.10
2022-12-14T04:57:21.696Z,10.73
2022-12-14T04:59:28.151Z,10.02
2022-12-14T05:01:43.122Z,11.70
2022-12-14T05:03:54.687Z,12.20
2022-12-14T05:06:16.926Z,11.73
2022-12-14T05:08:36.675Z,11.75
2022-12-14T05:10:45.047Z,10.23
2022-12-14T05:12:59.380Z,11.90
2022-12-14T05:15:09.429Z,12.38
2022-12-14T05:17:14.767Z,10.43
2022-12-14T05:19:19.806Z,10.35
2022-12-14T05:23:44.274Z,11.02
2022-12-14T05:25:49.318Z,11.00
2022-12-14T05:29:58.698Z,10.80
2022-12-14T05:32:04.741Z,10.30
2022-12-14T05:34:09.551Z,10.43
2022-12-14T05:36:14.576Z,10.98
2022-12-14T05:40:26.701Z,10.40
2022-12-14T05:42:31.513Z,10.10
2022-12-14T05:44:36.434Z,9.85
2022-12-14T05:46:41.228Z,10.70
2022-12-14T05:48:49.191Z,10.65
2022-12-14T05:50:54.536Z,9.75
2022-12-14T05:53:01.810Z,9.88
2022-12-14T05:55:10.384Z,8.73
2022-12-14T05:57:15.779Z,10.50
2022-12-14T05:59:20.922Z,10.20
2022-12-14T06:03:31.311Z,11.55
2022-12-14T06:05:36.580Z,10.65
2022-12-14T06:07:41.529Z,10.70
2022-12-14T06:09:46.615Z,11.52
2022-12-14T06:11:54.128Z,11.32
2022-12-14T06:13:59.087Z,10.63
2022-12-14T06:16:11.673Z,11.65
2022-12-14T06:18:16.704Z,10.77
2022-12-14T06:20:21.555Z,11.27
2022-12-14T06:22:27.519Z,10.65
2022-12-14T06:24:32.296Z,10.23
2022-12-14T06:26:41.023Z,10.20
2022-12-14T06:28:48.617Z,10.18
2022-12-14T06:30:53.483Z,9.80
2022-12-14T06:32:58.286Z,10.00
2022-12-14T06:35:03.144Z,9.70
2022-12-14T06:37:07.944Z,10.38
2022-12-14T06:39:16.243Z,11.90
2022-12-14T06:41:21.329Z,11.82
2022-12-14T06:45:36.049Z,11.70
2022-12-14T06:47:41.471Z,11.38
2022-12-14T06:49:46.239Z,11.73
2022-12-14T06:51:53.997Z,11.73
2022-12-14T06:56:11.775Z,10.00
2022-12-14T06:58:16.594Z,14.32
2022-12-14T07:00:22.284Z,11.00
2022-12-14T07:02:29.941Z,10.98
2022-12-14T07:04:34.927Z,10.85
2022-12-14T07:06:41.564Z,10.52
2022-12-14T07:08:46.766Z,9.98
2022-12-14T07:12:58.957Z,9.75
2022-12-14T07:15:04.128Z,10.13
2022-12-14T07:17:09.017Z,10.40
2022-12-14T07:19:16.482Z,10.20
2022-12-14T07:21:22.890Z,10.32
2022-12-14T07:23:28.426Z,11.27
2022-12-14T07:25:33.562Z,9.82
2022-12-14T07:27:38.391Z,10.10
2022-12-14T07:29:43.268Z,10.43
2022-12-14T07:31:49.451Z,10.52
2022-12-14T07:33:56.899Z,11.27
2022-12-14T07:36:09.627Z,10.45
2022-12-14T07:38:14.467Z,11.45
2022-12-14T07:40:19.491Z,11.40
2022-12-14T07:44:29.324Z,11.00
2022-12-14T07:46:34.806Z,10.63
2022-12-14T07:48:40.150Z,11.10
2022-12-14T07:50:45.089Z,11.68
2022-12-14T07:52:52.543Z,12.10
2022-12-14T07:54:59.787Z,12.02
2022-12-14T07:57:04.690Z,11.55
2022-12-14T07:59:11.516Z,11.48
2022-12-14T08:01:18.362Z,10.73
2022-12-14T08:03:23.396Z,10.48
2022-12-14T08:05:28.257Z,10.63
2022-12-14T08:07:33.277Z,11.68
2022-12-14T08:09:41.232Z,11.23
2022-12-14T08:11:46.259Z,11.00
2022-12-14T08:13:55.268Z,10.85
2022-12-14T08:16:04.599Z,10.27
2022-12-14T08:18:09.516Z,10.88
2022-12-14T08:20:15.675Z,11.32
2022-12-14T08:22:20.551Z,11.98
2022-12-14T08:24:25.565Z,12.25
2022-12-14T08:26:35.770Z,10.73
2022-12-14T08:28:41.090Z,11.82
2022-12-14T08:32:50.598Z,11.25
2022-12-14T08:34:55.429Z,11.65
2022-12-14T08:37:02.433Z,11.05
2022-12-14T08:39:09.296Z,11.93
2022-12-14T08:41:16.655Z,12.13
2022-12-14T08:43:33.884Z,12.23
2022-12-14T08:45:39.070Z,12.27
2022-12-14T08:49:48.462Z,11.88
2022-12-14T08:51:53.292Z,11.50
2022-12-14T08:53:59.324Z,11.40
2022-12-14T08:56:08.301Z,13.20
2022-12-14T08:58:13.962Z,13.38
2022-12-14T09:00:22.092Z,12.65
2022-12-14T09:02:27.812Z,12.30
2022-12-14T09:04:32.676Z,11.98
2022-12-14T09:06:39.043Z,12.18
2022-12-14T09:08:44.369Z,11.88
2022-12-14T09:10:51.856Z,12.30
2022-12-14T09:12:58.932Z,11.48
2022-12-14T09:15:04.184Z,12.95
2022-12-14T09:19:16.176Z,11.80
2022-12-14T09:21:21.382Z,12.27
2022-12-14T09:23:27.623Z,13.20
2022-12-14T09:25:33.466Z,13.55
2022-12-14T09:27:38.579Z,12.45
2022-12-14T09:31:48.560Z,12.02
2022-12-14T09:33:58.716Z,11.80
2022-12-14T09:36:05.760Z,12.75
2022-12-14T09:38:10.739Z,13.65
2022-12-14T09:40:19.240Z,14.15
2022-12-14T09:42:50.652Z,12.98
2022-12-14T09:45:04.183Z,13.27
2022-12-14T09:47:14.846Z,13.07
2022-12-14T09:49:29.408Z,14.15
2022-12-14T09:51:37.784Z,12.98
2022-12-14T09:53:43.392Z,13.93
2022-12-14T09:55:51.122Z,13.52
2022-12-14T09:58:01.035Z,13.70
2022-12-14T10:00:07.111Z,13.20
2022-12-14T10:02:31.787Z,13.57
2022-12-14T10:04:53.103Z,13.80
2022-12-14T10:07:09.063Z,14.82
2022-12-14T10:09:22.697Z,15.32
2022-12-14T10:11:38.252Z,16.80
2022-12-14T10:13:52.549Z,15.85
2022-12-14T10:16:02.959Z,14.27
2022-12-14T10:21:04.496Z,15.07
2022-12-14T10:23:22.424Z,14.32
2022-12-14T10:25:32.887Z,16.48
2022-12-14T10:28:09.353Z,15.18
2022-12-14T10:30:08.155Z,15.02
2022-12-14T10:32:23.031Z,16.13
2022-12-14T10:34:32.547Z,14.57
2022-12-14T10:36:51.999Z,15.45
2022-12-14T10:39:02.439Z,15.95
2022-12-14T10:41:18.436Z,16.58
2022-12-14T10:43:41.933Z,15.65
2022-12-14T10:45:54.460Z,16.83
2022-12-14T10:48:16.456Z,16.48
2022-12-14T10:50:30.667Z,16.63
2022-12-14T10:52:43.340Z,16.05
2022-12-14T10:54:53.881Z,16.70
2022-12-14T10:57:02.362Z,15.85
2022-12-14T10:59:35.159Z,16.08
2022-12-14T11:01:45.440Z,19.40
2022-12-14T11:03:52.228Z,15.48
2022-12-14T11:06:07.638Z,16.27
2022-12-14T11:08:42.155Z,16.30
2022-12-14T11:10:47.116Z,16.27
2022-12-14T11:13:04.042Z,15.50
2022-12-14T11:15:24.631Z,15.20
2022-12-14T11:17:37.841Z,14.40
2022-12-14T11:19:42.862Z,15.93
2022-12-14T11:21:49.962Z,16.75
2022-12-14T11:23:58.234Z,15.65
2022-12-14T11:26:05.420Z,15.85
2022-12-14T11:28:36.393Z,16.05
2022-12-14T11:30:42.355Z,16.25
2022-12-14T11:32:50.110Z,15.95
2022-12-14T11:35:03.854Z,16.02
2022-12-14T11:37:17.372Z,17.17
2022-12-14T11:39:27.236Z,17.60
2022-12-14T11:41:36.131Z,17.40
2022-12-14T11:43:41.456Z,17.65
2022-12-14T11:45:53.559Z,16.63
2022-12-14T11:48:14.361Z,16.17
2022-12-14T11:50:26.820Z,15.45
2022-12-14T11:52:44.997Z,17.25
2022-12-14T11:55:12.376Z,16.70
2022-12-14T11:57:28.058Z,16.83
2022-12-14T12:01:40.131Z,16.35
2022-12-14T12:03:48.485Z,17.23
2022-12-14T12:05:54.449Z,16.05
2022-12-14T12:08:02.301Z,16.45
2022-12-14T12:10:22.302Z,17.33
2022-12-14T12:12:27.264Z,17.10
2022-12-14T12:14:37.778Z,15.88
2022-12-14T12:16:46.871Z,17.20
2022-12-14T12:18:55.777Z,17.40
2022-12-14T12:21:07.133Z,17.27
2022-12-14T12:23:18.410Z,17.33
2022-12-14T12:25:36.772Z,19.38
2022-12-14T12:27:42.766Z,18.75
2022-12-14T12:29:51.916Z,17.90
2022-12-14T12:32:00.744Z,17.83
2022-12-14T12:34:12.666Z,16.88
2022-12-14T12:36:23.983Z,18.05
2022-12-14T12:38:55.952Z,19.23
2022-12-14T12:41:15.668Z,19.63
2022-12-14T12:43:26.928Z,18.75
2022-12-14T12:45:39.051Z,20.15
2022-12-14T12:47:48.406Z,18.52
2022-12-14T12:49:53.406Z,18.98
2022-12-14T12:52:02.839Z,17.48
2022-12-14T12:54:13.759Z,17.48
2022-12-14T12:56:24.837Z,18.42
2022-12-14T12:58:34.191Z,17.60
2022-12-14T13:00:40.940Z,20.10
2022-12-14T13:02:49.721Z,20.00
2022-12-14T13:05:16.268Z,19.00
2022-12-14T13:07:32.443Z,19.73
2022-12-14T13:09:44.103Z,17.73
2022-12-14T13:11:52.266Z,20.20
2022-12-14T13:14:01.130Z,18.40
2022-12-14T13:16:15.583Z,18.92
2022-12-14T13:18:49.180Z,18.42
2022-12-14T13:20:50.631Z,18.13
2022-12-14T13:25:12.024Z,18.15
2022-12-14T13:27:43.650Z,18.63
2022-12-14T13:30:12.554Z,20.27
2022-12-14T13:32:43.971Z,19.30
2022-12-14T13:35:00.511Z,18.75
2022-12-14T13:37:29.992Z,21.50
2022-12-14T13:39:52.260Z,20.20
2022-12-14T13:42:05.108Z,20.15
2022-12-14T13:44:37.191Z,20.65
2022-12-14T13:46:45.681Z,19.58
2022-12-14T13:48:53.870Z,19.25
2022-12-14T13:51:02.655Z,19.13
2022-12-14T13:53:14.931Z,19.52
2022-12-14T13:55:34.112Z,18.75
2022-12-14T13:57:39.106Z,19.98
2022-12-14T13:59:51.957Z,20.15
2022-12-14T14:02:04.003Z,20.42
2022-12-14T14:04:25.941Z,21.45
2022-12-14T14:06:42.124Z,32.65
2022-12-14T14:08:49.365Z,21.00
2022-12-14T14:11:13.976Z,18.60
2022-12-14T14:13:49.753Z,17.58
2022-12-14T14:16:26.908Z,19.52
2022-12-14T14:18:30.001Z,19.88
2022-12-14T14:20:40.921Z,18.80
2022-12-14T14:23:29.679Z,18.83
2022-12-14T14:25:42.651Z,18.83
2022-12-14T14:27:52.374Z,19.10
2022-12-14T14:29:58.642Z,22.80
2022-12-14T14:32:08.395Z,21.65
2022-12-14T14:34:21.881Z,21.52
2022-12-14T14:36:33.087Z,19.80
2022-12-14T14:38:40.176Z,18.48
2022-12-14T14:43:30.183Z,18.30
2022-12-14T14:45:43.286Z,21.60
2022-12-14T14:47:58.753Z,20.65
2022-12-14T14:50:07.588Z,27.98
2022-12-14T14:52:42.500Z,20.52
2022-12-14T14:55:16.172Z,21.52
2022-12-14T14:57:36.588Z,20.80
2022-12-14T14:59:51.109Z,20.77
2022-12-14T15:02:00.744Z,21.57
2022-12-14T15:04:23.047Z,21.75
2022-12-14T15:06:32.810Z,21.02
2022-12-14T15:08:42.471Z,23.20
2022-12-14T15:10:48.545Z,22.48
2022-12-14T15:12:58.951Z,22.33
2022-12-14T15:15:07.244Z,21.80
2022-12-14T15:17:16.267Z,25.10
2022-12-14T15:19:37.140Z,31.98
2022-12-14T15:21:42.209Z,39.60
2022-12-14T15:26:02.960Z,28.17
2022-12-14T15:28:10.407Z,23.95
2022-12-14T15:30:23.334Z,33.45
2022-12-14T15:32:28.417Z,23.23
2022-12-14T15:36:44.459Z,20.58
2022-12-14T15:38:57.391Z,75.85
2022-12-14T15:41:05.504Z,39.70
2022-12-14T15:43:20.189Z,23.48
2022-12-14T15:45:28.026Z,34.42
2022-12-14T15:47:33.872Z,22.40
2022-12-14T15:49:41.739Z,22.20
2022-12-14T15:51:47.361Z,21.60
2022-12-14T15:53:54.649Z,24.05
2022-12-14T15:56:08.282Z,22.52
2022-12-14T15:58:21.563Z,22.08
2022-12-14T16:00:26.632Z,23.80
2022-12-14T16:02:38.196Z,25.70
2022-12-14T16:04:47.631Z,24.40
2022-12-14T16:07:00.592Z,33.40
2022-12-14T16:09:14.192Z,26.35
2022-12-14T16:11:26.140Z,28.95
2022-12-14T16:13:35.921Z,28.25
2022-12-14T16:15:40.846Z,23.40
2022-12-14T16:17:46.013Z,27.38
2022-12-14T16:20:00.741Z,23.05
2022-12-14T16:22:22.573Z,22.98
2022-12-14T16:24:28.751Z,25.77
2022-12-14T16:26:38.602Z,26.30
2022-12-14T16:28:43.821Z,24.55
2022-12-14T16:30:58.312Z,23.98
2022-12-14T16:33:18.815Z,38.10
2022-12-14T16:35:29.057Z,36.78
2022-12-14T16:37:34.416Z,27.50
2022-12-14T16:39:41.885Z,40.88
2022-12-14T16:41:55.437Z,27.70
2022-12-14T16:44:03.428Z,23.67
2022-12-14T16:46:20.259Z,22.45
2022-12-14T16:48:25.173Z,22.92
2022-12-14T16:50:55.652Z,52.20
2022-12-14T16:53:18.019Z,23.45
2022-12-14T16:55:26.447Z,21.58
2022-12-14T16:57:31.744Z,20.92
2022-12-14T16:59:43.534Z,20.40
2022-12-14T17:01:50.184Z,21.85
2022-12-14T17:04:03.611Z,23.58
2022-12-14T17:06:19.643Z,22.55
2022-12-14T17:08:24.596Z,22.08
2022-12-14T17:10:30.640Z,21.25
2022-12-14T17:12:35.543Z,20.90
2022-12-14T17:14:45.987Z,22.38
2022-12-14T17:17:01.730Z,20.80
2022-12-14T17:19:08.477Z,19.48
2022-12-14T17:21:20.960Z,22.00
2022-12-14T17:23:26.017Z,21.70
2022-12-14T17:25:33.217Z,27.27
2022-12-14T17:27:38.121Z,27.02
2022-12-14T17:29:42.979Z,23.90
2022-12-14T17:31:49.745Z,21.80
2022-12-14T17:33:57.026Z,25.48
2022-12-14T17:36:01.948Z,23.45
2022-12-14T17:38:15.522Z,23.83
2022-12-14T17:40:20.884Z,23.15
2022-12-14T17:42:25.748Z,24.13
2022-12-14T17:44:30.670Z,27.05
2022-12-14T17:46:35.664Z,25.58
2022-12-14T17:50:48.210Z,26.60
2022-12-14T17:52:53.410Z,24.65
2022-12-14T17:55:01.188Z,28.58
2022-12-14T17:57:07.479Z,25.70
2022-12-14T17:59:12.454Z,25.65
2022-12-14T18:01:20.303Z,24.42
2022-12-14T18:03:25.741Z,27.85
2022-12-14T18:07:37.302Z,25.10
2022-12-14T18:09:42.277Z,25.48
2022-12-14T18:12:21.704Z,25.92
2022-12-14T18:14:16.745Z,23.83
2022-12-14T18:16:23.996Z,25.63
2022-12-14T18:18:29.834Z,25.73
2022-12-14T18:20:35.174Z,24.17
2022-12-14T18:22:40.008Z,27.63
2022-12-14T18:24:45.853Z,26.02
2022-12-14T18:26:55.389Z,25.02
2022-12-14T18:29:02.282Z,26.42
2022-12-14T18:31:09.780Z,25.27
2022-12-14T18:33:17.369Z,25.23
2022-12-14T18:35:24.122Z,26.13
2022-12-14T18:37:32.740Z,27.13
2022-12-14T18:39:38.071Z,29.13
2022-12-14T18:41:42.948Z,28.60
2022-12-14T18:43:51.066Z,28.17
2022-12-14T18:46:00.335Z,25.20
2022-12-14T18:48:05.329Z,24.10
2022-12-14T18:50:10.619Z,27.77
2022-12-14T18:52:15.958Z,25.25
2022-12-14T18:54:20.795Z,26.35
2022-12-14T18:56:29.305Z,25.23
2022-12-14T18:58:34.591Z,27.10
2022-12-14T19:00:42.023Z,25.00
2022-12-14T19:02:47.334Z,25.92
2022-12-14T19:04:57.106Z,26.08
2022-12-14T19:07:02.090Z,26.95
2022-12-14T19:09:06.949Z,24.15
2022-12-14T19:11:14.199Z,28.20
2022-12-14T19:13:25.736Z,26.88
2022-12-14T19:15:33.195Z,27.55
2022-12-14T19:17:40.999Z,28.40
2022-12-14T19:19:45.927Z,27.67
2022-12-14T19:21:50.780Z,23.67
2022-12-14T19:23:55.856Z,27.20
2022-12-14T19:26:04.256Z,24.90
2022-12-14T19:28:30.808Z,26.08
2022-12-14T19:30:34.821Z,24.95
2022-12-14T19:32:42.279Z,25.63
2022-12-14T19:34:47.332Z,24.27
2022-12-14T19:36:52.559Z,27.85
2022-12-14T19:38:57.620Z,28.42
2022-12-14T19:43:08.293Z,28.73
2022-12-14T19:45:14.094Z,29.05
2022-12-14T19:47:20.621Z,30.48
2022-12-14T19:49:28.046Z,27.85
2022-12-14T19:51:32.948Z,28.80
2022-12-14T19:53:38.322Z,31.27
2022-12-14T19:55:43.160Z,30.83
2022-12-14T19:57:48.093Z,32.05
2022-12-14T19:59:54.167Z,29.77
2022-12-14T20:01:59.654Z,29.70
2022-12-14T20:04:06.732Z,28.52
2022-12-14T20:06:14.236Z,33.75
2022-12-14T20:08:19.085Z,30.65
2022-12-14T20:10:24.374Z,29.15
2022-12-14T20:12:29.338Z,32.85
